createdAt,value
2019-05-19T00:02:13.032Z,35.57
2019-05-19T00:04:39.816Z,36.70
2019-05-19T00:07:06.502Z,35.53
2019-05-19T00:09:33.185Z,45.30
2019-05-19T00:11:59.839Z,40.13
2019-05-19T00:14:26.553Z,42.80
2019-05-19T00:16:53.227Z,38.27
2019-05-19T00:19:26.898Z,38.80
2019-05-19T00:21:48.690Z,34.97
2019-05-19T00:24:15.370Z,35.30
2019-05-19T00:26:43.149Z,31.40
2019-05-19T00:29:10.046Z,33.13
2019-05-19T00:31:36.729Z,32.30
2019-05-19T00:34:03.539Z,30.90
2019-05-19T00:36:30.286Z,33.40
2019-05-19T00:38:56.977Z,32.50
2019-05-19T00:41:23.771Z,31.33
2019-05-19T00:43:50.558Z,32.80
2019-05-19T00:46:17.325Z,31.70
2019-05-19T00:48:44.809Z,33.13
2019-05-19T00:51:11.835Z,32.20
2019-05-19T00:53:38.510Z,30.50
2019-05-19T00:56:05.320Z,29.90
2019-05-19T00:58:32.931Z,28.23
2019-05-19T01:00:59.753Z,28.13
2019-05-19T01:03:26.463Z,27.50
2019-05-19T01:05:53.244Z,23.33
2019-05-19T01:08:20.276Z,23.67
2019-05-19T01:10:47.045Z,27.27
2019-05-19T01:13:15.686Z,25.17
2019-05-19T01:15:42.608Z,25.00
2019-05-19T01:18:09.300Z,25.53
2019-05-19T01:20:36.084Z,23.90
2019-05-19T01:23:02.905Z,25.50
2019-05-19T01:25:29.660Z,25.33
2019-05-19T01:27:56.582Z,25.20
2019-05-19T01:30:23.731Z,24.00
2019-05-19T01:32:50.642Z,23.57
2019-05-19T01:35:17.321Z,24.17
2019-05-19T01:37:44.007Z,21.70
2019-05-19T01:40:11.912Z,21.93
2019-05-19T01:42:38.602Z,21.33
2019-05-19T01:45:05.610Z,23.07
2019-05-19T01:47:32.294Z,21.53
2019-05-19T01:50:16.547Z,22.83
2019-05-19T01:52:27.573Z,22.03
2019-05-19T01:54:54.271Z,23.00
2019-05-19T01:57:21.051Z,21.73
2019-05-19T01:59:47.762Z,21.90
2019-05-19T02:02:14.480Z,22.53
2019-05-19T02:04:41.293Z,23.80
2019-05-19T02:07:08.092Z,22.63
2019-05-19T02:09:34.910Z,21.60
2019-05-19T02:12:01.700Z,22.20
2019-05-19T02:14:28.452Z,21.50
2019-05-19T02:16:55.321Z,21.53
2019-05-19T02:19:22.182Z,23.23
2019-05-19T02:21:48.964Z,21.80
2019-05-19T02:24:15.765Z,22.90
2019-05-19T02:26:42.558Z,22.00
2019-05-19T02:29:09.350Z,23.20
2019-05-19T02:31:36.080Z,21.20
2019-05-19T02:34:03.066Z,21.87
2019-05-19T02:36:29.748Z,20.97
2019-05-19T02:38:56.459Z,19.80
2019-05-19T02:41:25.123Z,20.30
2019-05-19T02:43:52.443Z,21.57
2019-05-19T02:46:19.622Z,21.60
2019-05-19T02:48:46.532Z,20.17
2019-05-19T02:51:13.754Z,21.70
2019-05-19T02:53:42.419Z,21.03
2019-05-19T02:56:09.704Z,20.60
2019-05-19T02:58:36.808Z,21.00
2019-05-19T03:01:03.485Z,18.63
2019-05-19T03:03:30.212Z,20.40
2019-05-19T03:05:57.013Z,20.27
2019-05-19T03:08:23.706Z,19.50
2019-05-19T03:10:51.422Z,19.13
2019-05-19T03:13:18.113Z,19.07
2019-05-19T03:15:44.797Z,28.90
2019-05-19T03:18:11.493Z,40.93
2019-05-19T03:20:38.153Z,30.93
2019-05-19T03:23:04.830Z,25.83
2019-05-19T03:25:31.515Z,26.67
2019-05-19T03:27:58.323Z,21.80
2019-05-19T03:30:53.466Z,19.17
2019-05-19T03:33:23.517Z,19.57
2019-05-19T03:35:50.175Z,20.90
2019-05-19T03:38:16.858Z,20.10
2019-05-19T03:40:43.665Z,18.57
2019-05-19T03:43:10.637Z,19.40
2019-05-19T03:45:37.538Z,19.00
2019-05-19T03:48:04.426Z,20.03
2019-05-19T03:50:31.209Z,19.67
2019-05-19T03:52:58.136Z,17.80
2019-05-19T03:55:24.797Z,20.80
2019-05-19T03:57:51.475Z,25.20
2019-05-19T04:00:19.668Z,29.40
2019-05-19T04:02:46.364Z,17.20
2019-05-19T04:05:13.250Z,19.53
2019-05-19T04:07:40.303Z,17.20
2019-05-19T04:10:07.541Z,16.83
2019-05-19T04:12:34.328Z,18.17
2019-05-19T04:15:02.314Z,16.10
2019-05-19T04:17:29.084Z,15.97
2019-05-19T04:19:55.777Z,15.87
2019-05-19T04:22:22.813Z,16.43
2019-05-19T04:24:51.405Z,16.83
2019-05-19T04:27:18.115Z,17.90
2019-05-19T04:29:44.836Z,16.60
2019-05-19T04:32:11.490Z,16.43
2019-05-19T04:34:38.182Z,14.33
2019-05-19T04:37:05.150Z,16.27
2019-05-19T04:39:32.112Z,17.07
2019-05-19T04:41:58.807Z,16.23
2019-05-19T04:44:25.586Z,16.10
2019-05-19T04:46:52.414Z,16.20
2019-05-19T04:49:19.077Z,15.10
2019-05-19T04:51:45.766Z,15.90
2019-05-19T04:54:13.577Z,17.40
2019-05-19T04:56:40.258Z,18.20
2019-05-19T04:59:06.945Z,16.50
2019-05-19T05:01:33.634Z,15.97
2019-05-19T05:04:00.338Z,17.43
2019-05-19T05:06:27.058Z,17.20
2019-05-19T05:08:53.858Z,16.70
2019-05-19T05:11:20.520Z,17.00
2019-05-19T05:13:47.208Z,17.17
2019-05-19T05:16:14.984Z,18.30
2019-05-19T05:18:41.688Z,17.90
2019-05-19T05:21:08.654Z,17.90
2019-05-19T05:23:35.351Z,16.60
2019-05-19T05:26:02.052Z,15.80
2019-05-19T05:28:28.754Z,17.67
2019-05-19T05:30:55.511Z,15.40
2019-05-19T05:33:22.205Z,15.73
2019-05-19T05:35:48.986Z,14.97
2019-05-19T05:38:16.237Z,15.80
2019-05-19T05:40:42.928Z,15.30
2019-05-19T05:43:09.617Z,14.00
2019-05-19T05:45:36.316Z,16.30
2019-05-19T05:48:03.138Z,15.00
2019-05-19T05:50:29.818Z,15.20
2019-05-19T05:52:56.604Z,15.13
2019-05-19T05:55:23.402Z,16.03
2019-05-19T05:57:50.081Z,14.30
2019-05-19T06:00:17.082Z,16.00
2019-05-19T06:02:43.740Z,15.57
2019-05-19T06:05:10.615Z,15.00
2019-05-19T06:07:37.303Z,15.10
2019-05-19T06:10:04.961Z,14.87
2019-05-19T06:12:31.651Z,14.90
2019-05-19T06:14:58.370Z,14.40
2019-05-19T06:17:25.079Z,14.50
2019-05-19T06:19:51.838Z,15.90
2019-05-19T06:22:18.716Z,14.20
2019-05-19T06:24:45.388Z,15.60
2019-05-19T06:27:12.061Z,13.80
2019-05-19T06:29:38.847Z,15.20
2019-05-19T06:32:13.588Z,13.87
2019-05-19T06:34:40.278Z,14.60
2019-05-19T06:37:06.954Z,13.50
2019-05-19T06:39:33.623Z,13.87
2019-05-19T06:42:00.477Z,13.97
2019-05-19T06:44:27.217Z,14.10
2019-05-19T06:46:53.983Z,12.83
2019-05-19T06:49:20.756Z,13.93
2019-05-19T06:51:47.539Z,13.60
2019-05-19T06:54:14.234Z,13.50
2019-05-19T06:56:40.939Z,14.57
2019-05-19T06:59:07.600Z,14.47
2019-05-19T07:01:34.304Z,14.80
2019-05-19T07:04:00.961Z,14.97
2019-05-19T07:06:27.734Z,14.20
2019-05-19T07:08:55.818Z,15.40
2019-05-19T07:11:22.519Z,14.53
2019-05-19T07:13:49.292Z,13.73
2019-05-19T07:16:15.983Z,13.50
2019-05-19T07:18:42.673Z,13.43
2019-05-19T07:21:09.365Z,13.60
2019-05-19T07:23:37.273Z,14.57
2019-05-19T07:26:04.154Z,13.30
2019-05-19T07:28:30.941Z,13.70
2019-05-19T07:30:57.726Z,12.60
2019-05-19T07:33:24.405Z,12.90
2019-05-19T07:35:51.093Z,13.43
2019-05-19T07:38:17.897Z,14.30
2019-05-19T07:40:44.656Z,14.23
2019-05-19T07:43:11.422Z,13.43
2019-05-19T07:45:39.251Z,14.47
2019-05-19T07:48:05.971Z,12.83
2019-05-19T07:50:32.644Z,14.10
2019-05-19T07:53:12.366Z,14.33
2019-05-19T07:55:39.053Z,13.93
2019-05-19T07:58:05.832Z,14.53
2019-05-19T08:00:32.506Z,14.60
2019-05-19T08:02:59.242Z,15.60
2019-05-19T08:05:26.016Z,19.17
2019-05-19T08:07:52.687Z,24.10
2019-05-19T08:10:19.418Z,21.60
2019-05-19T08:12:46.062Z,15.80
2019-05-19T08:15:13.040Z,14.73
2019-05-19T08:17:39.803Z,15.20
2019-05-19T08:20:06.679Z,17.00
2019-05-19T08:22:34.566Z,14.03
2019-05-19T08:25:01.227Z,16.50
2019-05-19T08:27:27.899Z,14.80
2019-05-19T08:29:54.793Z,15.60
2019-05-19T08:32:21.582Z,16.07
2019-05-19T08:34:48.269Z,20.10
2019-05-19T08:37:15.148Z,26.23
2019-05-19T08:39:41.782Z,21.20
2019-05-19T08:42:08.461Z,15.07
2019-05-19T08:44:35.258Z,15.13
2019-05-19T08:47:01.985Z,16.13
2019-05-19T08:49:28.720Z,15.40
2019-05-19T08:51:55.468Z,16.73
2019-05-19T08:54:22.176Z,16.10
2019-05-19T08:56:49.393Z,14.30
2019-05-19T08:59:16.095Z,13.60
2019-05-19T09:01:42.759Z,14.60
2019-05-19T09:04:09.535Z,14.23
2019-05-19T09:06:36.230Z,13.57
2019-05-19T09:09:04.292Z,12.03
2019-05-19T09:11:31.182Z,15.50
2019-05-19T09:13:58.031Z,19.70
2019-05-19T09:16:24.682Z,20.10
2019-05-19T09:18:51.476Z,17.30
2019-05-19T09:21:18.159Z,34.53
2019-05-19T09:23:44.925Z,28.60
2019-05-19T09:26:11.623Z,21.30
2019-05-19T09:28:38.382Z,15.03
2019-05-19T09:31:05.187Z,16.40
2019-05-19T09:33:31.877Z,16.50
2019-05-19T09:35:58.655Z,16.43
2019-05-19T09:38:25.430Z,13.00
2019-05-19T09:40:52.115Z,21.77
2019-05-19T09:43:18.897Z,24.70
2019-05-19T09:45:45.693Z,28.93
2019-05-19T09:48:12.471Z,27.30
2019-05-19T09:50:39.252Z,22.00
2019-05-19T09:53:05.934Z,18.73
2019-05-19T09:55:32.662Z,28.53
2019-05-19T09:57:59.474Z,33.13
2019-05-19T10:00:26.403Z,21.90
2019-05-19T10:02:53.102Z,23.67
2019-05-19T10:05:20.296Z,24.83
2019-05-19T10:07:47.020Z,17.50
2019-05-19T10:10:16.687Z,23.03
2019-05-19T10:12:45.731Z,28.13
2019-05-19T10:15:13.488Z,15.63
2019-05-19T10:17:40.173Z,14.40
2019-05-19T10:20:07.568Z,14.73
2019-05-19T10:22:34.402Z,16.40
2019-05-19T10:25:20.387Z,28.07
2019-05-19T10:27:29.896Z,17.50
2019-05-19T10:29:56.563Z,18.83
2019-05-19T10:32:23.322Z,38.13
2019-05-19T10:34:50.251Z,34.27
2019-05-19T10:37:16.937Z,27.20
2019-05-19T10:39:43.839Z,17.20
2019-05-19T10:42:10.587Z,19.40
2019-05-19T10:44:37.406Z,26.90
2019-05-19T10:47:04.255Z,13.73
2019-05-19T10:49:31.019Z,18.10
2019-05-19T10:51:57.926Z,11.97
2019-05-19T10:54:24.703Z,14.10
2019-05-19T10:56:51.489Z,10.67
2019-05-19T10:59:18.295Z,11.50
2019-05-19T11:01:44.960Z,11.43
2019-05-19T11:04:11.745Z,10.43
2019-05-19T11:06:38.434Z,11.33
2019-05-19T11:09:06.124Z,10.20
2019-05-19T11:11:32.989Z,10.83
2019-05-19T11:13:59.682Z,12.10
2019-05-19T11:16:26.445Z,11.40
2019-05-19T11:18:53.210Z,11.10
2019-05-19T11:21:19.931Z,13.10
2019-05-19T11:23:46.782Z,10.13
2019-05-19T11:26:13.561Z,10.70
2019-05-19T11:28:40.257Z,10.10
2019-05-19T11:31:07.029Z,11.37
2019-05-19T11:33:33.686Z,11.03
2019-05-19T11:36:00.405Z,32.27
2019-05-19T11:38:27.076Z,60.10
2019-05-19T11:40:53.801Z,11.43
2019-05-19T11:43:20.442Z,24.77
2019-05-19T11:45:48.328Z,12.00
2019-05-19T11:48:15.027Z,13.87
2019-05-19T11:50:42.305Z,10.40
2019-05-19T11:53:09.179Z,16.87
2019-05-19T11:55:36.282Z,13.03
2019-05-19T11:58:02.973Z,14.60
2019-05-19T12:00:29.859Z,8.97
2019-05-19T12:02:56.530Z,10.00
2019-05-19T12:05:23.560Z,10.97
2019-05-19T12:07:50.912Z,11.20
2019-05-19T12:10:17.739Z,17.43
2019-05-19T12:12:44.438Z,10.50
2019-05-19T12:15:11.433Z,10.87
2019-05-19T12:17:38.094Z,12.70
2019-05-19T12:20:04.910Z,10.27
2019-05-19T12:22:31.699Z,11.23
2019-05-19T12:24:58.486Z,9.60
2019-05-19T12:27:25.289Z,10.77
2019-05-19T12:29:52.118Z,9.87
2019-05-19T12:32:18.867Z,8.80
2019-05-19T12:34:45.538Z,9.60
2019-05-19T12:37:12.239Z,10.53
2019-05-19T12:39:38.917Z,9.27
2019-05-19T12:42:05.757Z,10.30
2019-05-19T12:44:32.588Z,10.53
2019-05-19T12:46:59.284Z,10.23
2019-05-19T12:49:26.050Z,10.40
2019-05-19T12:51:52.953Z,11.23
2019-05-19T12:54:19.634Z,9.90
2019-05-19T12:56:46.306Z,10.37
2019-05-19T12:59:13.295Z,10.10
2019-05-19T13:01:40.515Z,9.70
2019-05-19T13:04:07.357Z,10.47
2019-05-19T13:06:34.042Z,13.27
2019-05-19T13:09:00.762Z,14.73
2019-05-19T13:11:27.459Z,22.17
2019-05-19T13:13:54.149Z,23.63
2019-05-19T13:16:20.932Z,15.83
2019-05-19T13:18:47.613Z,17.47
2019-05-19T13:21:14.403Z,11.43
2019-05-19T13:23:41.118Z,16.23
2019-05-19T13:26:07.906Z,10.37
2019-05-19T13:28:34.587Z,10.63
2019-05-19T13:31:01.262Z,11.00
2019-05-19T13:33:28.134Z,10.53
2019-05-19T13:35:54.797Z,10.23
2019-05-19T13:38:21.478Z,11.27
2019-05-19T13:40:48.260Z,10.10
2019-05-19T13:43:15.038Z,11.97
2019-05-19T13:45:42.859Z,10.23
2019-05-19T13:48:09.573Z,11.60
2019-05-19T13:50:36.246Z,11.37
2019-05-19T13:53:03.026Z,10.70
2019-05-19T13:55:30.018Z,10.10
2019-05-19T13:57:56.797Z,10.13
2019-05-19T14:00:23.595Z,11.93
2019-05-19T14:02:50.282Z,14.47
2019-05-19T14:05:17.081Z,11.27
2019-05-19T14:07:44.874Z,13.20
2019-05-19T14:10:12.070Z,12.27
2019-05-19T14:12:38.872Z,10.80
2019-05-19T14:15:05.872Z,10.73
2019-05-19T14:17:33.693Z,9.87
2019-05-19T14:20:00.598Z,10.90
2019-05-19T14:22:27.310Z,9.13
2019-05-19T14:24:53.974Z,8.87
2019-05-19T14:27:29.606Z,9.10
2019-05-19T14:29:49.344Z,9.40
2019-05-19T14:32:17.188Z,9.00
2019-05-19T14:34:44.080Z,10.03
2019-05-19T14:37:10.881Z,10.17
2019-05-19T14:39:37.662Z,8.80
2019-05-19T14:42:08.074Z,9.00
2019-05-19T14:44:34.761Z,9.37
2019-05-19T14:47:01.586Z,9.10
2019-05-19T14:49:28.385Z,9.33
2019-05-19T14:51:55.093Z,12.00
2019-05-19T14:54:21.809Z,12.33
2019-05-19T14:56:48.492Z,9.43
2019-05-19T14:59:15.164Z,16.80
2019-05-19T15:01:41.942Z,12.47
2019-05-19T15:04:08.610Z,13.70
2019-05-19T15:06:35.372Z,13.23
2019-05-19T15:09:02.243Z,10.73
2019-05-19T15:11:30.362Z,10.00
2019-05-19T15:13:57.061Z,10.50
2019-05-19T15:16:23.776Z,10.43
2019-05-19T15:18:50.467Z,10.80
2019-05-19T15:21:17.167Z,10.87
2019-05-19T15:23:43.900Z,11.07
2019-05-19T15:26:10.590Z,17.40
2019-05-19T15:28:37.294Z,26.60
2019-05-19T15:31:04.027Z,22.50
2019-05-19T15:33:37.697Z,19.17
2019-05-19T15:35:59.313Z,14.47
2019-05-19T15:38:26.334Z,14.20
2019-05-19T15:40:53.039Z,13.30
2019-05-19T15:43:19.807Z,11.50
2019-05-19T15:45:46.477Z,13.00
2019-05-19T15:48:14.203Z,11.70
2019-05-19T15:50:40.878Z,12.47
2019-05-19T15:53:07.560Z,12.37
2019-05-19T15:55:34.341Z,10.23
2019-05-19T15:58:15.566Z,11.30
2019-05-19T16:00:29.686Z,11.93
2019-05-19T16:02:56.531Z,10.77
2019-05-19T16:05:23.243Z,11.23
2019-05-19T16:07:49.920Z,11.00
2019-05-19T16:10:16.713Z,10.70
2019-05-19T16:12:43.405Z,10.63
2019-05-19T16:15:10.385Z,10.87
2019-05-19T16:17:37.074Z,12.50
2019-05-19T16:20:05.060Z,10.80
2019-05-19T16:22:31.733Z,11.77
2019-05-19T16:24:58.398Z,11.00
2019-05-19T16:27:25.351Z,10.37
2019-05-19T16:29:52.107Z,20.63
2019-05-19T16:32:18.942Z,10.70
2019-05-19T16:34:45.636Z,29.70
2019-05-19T16:37:12.328Z,17.87
2019-05-19T16:39:38.986Z,37.77
2019-05-19T16:42:05.862Z,19.70
2019-05-19T16:44:32.632Z,13.00
2019-05-19T16:46:59.505Z,17.23
2019-05-19T16:49:26.193Z,11.43
2019-05-19T16:51:53.121Z,10.47
2019-05-19T16:54:24.959Z,13.00
2019-05-19T16:56:52.019Z,11.53
2019-05-19T16:59:19.190Z,10.30
2019-05-19T17:01:45.911Z,11.20
2019-05-19T17:04:12.779Z,12.17
2019-05-19T17:06:41.391Z,9.20
2019-05-19T17:09:08.573Z,10.40
2019-05-19T17:11:35.975Z,12.00
2019-05-19T17:14:03.070Z,11.00
2019-05-19T17:16:29.755Z,14.43
2019-05-19T17:18:56.407Z,31.93
2019-05-19T17:21:24.356Z,40.60
2019-05-19T17:23:51.569Z,21.90
2019-05-19T17:26:18.199Z,26.67
2019-05-19T17:28:59.579Z,21.50
2019-05-19T17:31:13.754Z,20.00
2019-05-19T17:33:41.605Z,21.23
2019-05-19T17:36:08.912Z,13.63
2019-05-19T17:38:35.838Z,25.27
2019-05-19T17:41:02.616Z,17.60
2019-05-19T17:43:29.396Z,16.60
2019-05-19T17:45:56.147Z,19.47
2019-05-19T17:48:26.615Z,16.73
2019-05-19T17:50:51.531Z,19.63
2019-05-19T17:53:18.523Z,24.73
2019-05-19T17:55:45.498Z,16.60
2019-05-19T17:58:12.285Z,24.40
2019-05-19T18:00:39.785Z,28.83
2019-05-19T18:03:09.206Z,17.27
2019-05-19T18:05:36.142Z,22.00
2019-05-19T18:08:03.139Z,14.60
2019-05-19T18:10:29.934Z,14.93
2019-05-19T18:12:56.833Z,15.80
2019-05-19T18:15:24.794Z,12.47
2019-05-19T18:17:51.583Z,15.53
2019-05-19T18:20:23.640Z,17.10
2019-05-19T18:22:47.190Z,16.20
2019-05-19T18:25:13.989Z,16.40
2019-05-19T18:27:41.078Z,16.10
2019-05-19T18:30:08.143Z,16.80
2019-05-19T18:32:34.818Z,14.27
2019-05-19T18:35:01.691Z,13.97
2019-05-19T18:37:28.348Z,13.90
2019-05-19T18:39:55.015Z,14.30
2019-05-19T18:42:21.804Z,13.60
2019-05-19T18:44:51.794Z,15.37
2019-05-19T18:47:21.085Z,13.80
2019-05-19T18:49:48.216Z,13.03
2019-05-19T18:52:15.305Z,19.57
2019-05-19T18:54:42.073Z,15.33
2019-05-19T18:57:08.811Z,32.03
2019-05-19T18:59:47.051Z,16.03
2019-05-19T19:02:04.402Z,24.43
2019-05-19T19:04:31.301Z,23.40
2019-05-19T19:06:58.295Z,20.70
2019-05-19T19:09:24.981Z,15.07
2019-05-19T19:11:51.700Z,15.03
2019-05-19T19:14:18.505Z,13.53
2019-05-19T19:16:45.196Z,25.77
2019-05-19T19:19:11.859Z,18.30
2019-05-19T19:21:38.543Z,28.70
2019-05-19T19:24:05.318Z,27.23
2019-05-19T19:26:32.453Z,31.77
2019-05-19T19:28:59.157Z,21.20
2019-05-19T19:31:25.928Z,24.00
2019-05-19T19:33:52.740Z,30.07
2019-05-19T19:36:20.498Z,26.97
2019-05-19T19:38:47.343Z,50.57
2019-05-19T19:41:15.336Z,22.40
2019-05-19T19:43:41.998Z,23.03
2019-05-19T19:46:08.690Z,32.70
2019-05-19T19:48:35.474Z,67.70
2019-05-19T19:51:02.241Z,42.87
2019-05-19T19:53:29.022Z,40.33
2019-05-19T19:55:55.852Z,48.63
2019-05-19T19:58:22.676Z,58.40
2019-05-19T20:00:49.522Z,47.27
2019-05-19T20:03:16.538Z,62.40
2019-05-19T20:05:45.639Z,57.63
2019-05-19T20:08:12.541Z,32.27
2019-05-19T20:10:39.345Z,32.10
2019-05-19T20:13:06.019Z,26.13
2019-05-19T20:15:33.259Z,24.30
2019-05-19T20:18:00.236Z,20.33
2019-05-19T20:20:27.011Z,23.60
2019-05-19T20:22:54.990Z,22.13
2019-05-19T20:25:23.943Z,21.60
2019-05-19T20:27:50.891Z,28.73
2019-05-19T20:30:33.632Z,19.03
2019-05-19T20:32:46.271Z,21.20
2019-05-19T20:35:13.173Z,20.57
2019-05-19T20:38:02.602Z,20.93
2019-05-19T20:40:29.383Z,20.70
2019-05-19T20:42:56.935Z,23.97
2019-05-19T20:45:23.970Z,44.97
2019-05-19T20:47:50.998Z,25.17
2019-05-19T20:50:17.865Z,34.83
2019-05-19T20:52:44.533Z,30.43
2019-05-19T20:55:11.418Z,28.40
2019-05-19T20:57:38.117Z,32.40
2019-05-19T21:00:05.994Z,36.23
2019-05-19T21:02:33.187Z,31.27
2019-05-19T21:04:59.849Z,44.63
2019-05-19T21:07:26.538Z,32.03
2019-05-19T21:09:55.649Z,29.57
2019-05-19T21:12:22.442Z,29.77
2019-05-19T21:14:49.213Z,25.40
2019-05-19T21:17:15.892Z,33.37
2019-05-19T21:19:44.670Z,27.37
2019-05-19T21:22:11.446Z,24.53
2019-05-19T21:24:38.169Z,42.53
2019-05-19T21:27:04.885Z,37.73
2019-05-19T21:29:31.547Z,35.00
2019-05-19T21:31:58.320Z,57.63
2019-05-19T21:34:25.041Z,53.43
2019-05-19T21:36:51.740Z,35.40
2019-05-19T21:39:18.410Z,30.17
2019-05-19T21:42:08.326Z,35.53
2019-05-19T21:44:35.048Z,27.13
2019-05-19T21:47:01.690Z,28.17
2019-05-19T21:49:28.361Z,30.40
2019-05-19T21:51:55.075Z,29.80
2019-05-19T21:54:21.845Z,25.87
2019-05-19T21:56:48.514Z,27.67
2019-05-19T21:59:17.204Z,33.73
2019-05-19T22:01:44.418Z,27.40
2019-05-19T22:04:11.494Z,26.40
2019-05-19T22:06:40.212Z,27.60
2019-05-19T22:09:07.270Z,25.77
2019-05-19T22:11:34.357Z,26.67
2019-05-19T22:14:01.041Z,27.60
2019-05-19T22:16:30.077Z,28.37
2019-05-19T22:18:56.894Z,27.57
2019-05-19T22:21:23.628Z,29.60
2019-05-19T22:23:50.336Z,29.60
2019-05-19T22:26:19.163Z,29.53
2019-05-19T22:28:46.031Z,29.53
2019-05-19T22:31:13.808Z,29.60
2019-05-19T22:33:40.520Z,29.70
2019-05-19T22:36:09.500Z,30.93
2019-05-19T22:38:36.649Z,31.00
2019-05-19T22:41:03.572Z,29.80
2019-05-19T22:43:30.246Z,32.90
2019-05-19T22:45:56.931Z,39.90
2019-05-19T22:48:23.611Z,39.93
2019-05-19T22:50:50.299Z,53.50
2019-05-19T22:53:17.009Z,37.13
2019-05-19T22:55:43.768Z,36.10
2019-05-19T22:58:10.437Z,32.83
2019-05-19T23:00:37.233Z,33.60
2019-05-19T23:03:03.914Z,32.57
2019-05-19T23:05:30.694Z,33.00
2019-05-19T23:07:57.837Z,31.67
2019-05-19T23:10:24.724Z,32.70
2019-05-19T23:12:51.410Z,31.10
2019-05-19T23:15:19.141Z,33.27
2019-05-19T23:17:45.925Z,36.97
2019-05-19T23:20:13.658Z,31.77
2019-05-19T23:22:40.463Z,32.77
2019-05-19T23:25:07.335Z,33.97
2019-05-19T23:27:34.102Z,31.47
2019-05-19T23:30:00.826Z,30.53
2019-05-19T23:32:27.573Z,34.10
2019-05-19T23:34:54.356Z,28.33
2019-05-19T23:37:21.222Z,30.23
2019-05-19T23:39:48.005Z,28.90
2019-05-19T23:42:14.696Z,30.70
2019-05-19T23:44:41.441Z,29.40
2019-05-19T23:47:08.234Z,27.73
2019-05-19T23:49:34.926Z,30.80
2019-05-19T23:52:01.574Z,25.50
2019-05-19T23:54:28.261Z,25.20
2019-05-19T23:56:54.938Z,26.50
2019-05-19T23:59:22.052Z,23.37
